sensor_id;sensor_type;location;lat;lon;timestamp;P1;durP1;ratioP1;P2;durP2;ratioP2
59263;SDS011;45030;42.720;23.344;2023-03-19T00:01:19;58.70;;;33.95;;
59263;SDS011;45030;42.720;23.344;2023-03-19T00:03:45;54.55;;;30.90;;
59263;SDS011;45030;42.720;23.344;2023-03-19T00:06:11;50.67;;;29.48;;
59263;SDS011;45030;42.720;23.344;2023-03-19T00:08:36;64.00;;;33.55;;
59263;SDS011;45030;42.720;23.344;2023-03-19T00:11:08;71.28;;;38.03;;
59263;SDS011;45030;42.720;23.344;2023-03-19T00:13:34;66.40;;;38.65;;
59263;SDS011;45030;42.720;23.344;2023-03-19T00:15:59;69.38;;;36.28;;
59263;SDS011;45030;42.720;23.344;2023-03-19T00:18:25;65.90;;;33.55;;
59263;SDS011;45030;42.720;23.344;2023-03-19T00:20:50;80.82;;;38.72;;
59263;SDS011;45030;42.720;23.344;2023-03-19T00:23:15;81.85;;;39.95;;
59263;SDS011;45030;42.720;23.344;2023-03-19T00:25:41;112.85;;;49.45;;
59263;SDS011;45030;42.720;23.344;2023-03-19T00:28:06;86.57;;;46.78;;
59263;SDS011;45030;42.720;23.344;2023-03-19T00:30:32;80.50;;;42.10;;
59263;SDS011;45030;42.720;23.344;2023-03-19T00:32:57;67.72;;;35.47;;
59263;SDS011;45030;42.720;23.344;2023-03-19T00:35:22;57.25;;;30.80;;
59263;SDS011;45030;42.720;23.344;2023-03-19T00:37:47;56.58;;;29.73;;
59263;SDS011;45030;42.720;23.344;2023-03-19T00:40:13;57.55;;;30.48;;
59263;SDS011;45030;42.720;23.344;2023-03-19T00:42:38;65.43;;;34.63;;
59263;SDS011;45030;42.720;23.344;2023-03-19T00:45:03;53.58;;;29.30;;
59263;SDS011;45030;42.720;23.344;2023-03-19T00:47:29;56.00;;;29.33;;
59263;SDS011;45030;42.720;23.344;2023-03-19T00:49:54;50.55;;;28.15;;
59263;SDS011;45030;42.720;23.344;2023-03-19T00:52:20;49.45;;;28.77;;
59263;SDS011;45030;42.720;23.344;2023-03-19T00:54:45;37.88;;;21.70;;
59263;SDS011;45030;42.720;23.344;2023-03-19T00:57:10;45.17;;;23.92;;
59263;SDS011;45030;42.720;23.344;2023-03-19T00:59:36;37.95;;;21.25;;
59263;SDS011;45030;42.720;23.344;2023-03-19T01:02:01;45.78;;;24.88;;
59263;SDS011;45030;42.720;23.344;2023-03-19T01:04:27;39.58;;;21.20;;
59263;SDS011;45030;42.720;23.344;2023-03-19T01:06:52;40.22;;;22.77;;
59263;SDS011;45030;42.720;23.344;2023-03-19T01:09:18;44.75;;;23.08;;
59263;SDS011;45030;42.720;23.344;2023-03-19T01:11:43;38.00;;;21.67;;
59263;SDS011;45030;42.720;23.344;2023-03-19T01:14:08;44.42;;;20.45;;
59263;SDS011;45030;42.720;23.344;2023-03-19T01:16:34;35.20;;;18.33;;
59263;SDS011;45030;42.720;23.344;2023-03-19T01:19:00;35.38;;;18.65;;
59263;SDS011;45030;42.720;23.344;2023-03-19T01:21:25;42.30;;;20.23;;
59263;SDS011;45030;42.720;23.344;2023-03-19T01:23:51;37.38;;;19.90;;
59263;SDS011;45030;42.720;23.344;2023-03-19T01:26:17;34.55;;;19.40;;
59263;SDS011;45030;42.720;23.344;2023-03-19T01:28:42;33.00;;;17.38;;
59263;SDS011;45030;42.720;23.344;2023-03-19T01:31:07;42.97;;;17.88;;
59263;SDS011;45030;42.720;23.344;2023-03-19T01:33:33;33.53;;;19.30;;
59263;SDS011;45030;42.720;23.344;2023-03-19T01:35:58;26.60;;;16.02;;
59263;SDS011;45030;42.720;23.344;2023-03-19T01:38:27;31.13;;;14.18;;
59263;SDS011;45030;42.720;23.344;2023-03-19T01:40:53;25.83;;;13.35;;
59263;SDS011;45030;42.720;23.344;2023-03-19T01:45:45;26.83;;;15.70;;
59263;SDS011;45030;42.720;23.344;2023-03-19T01:48:44;27.90;;;16.25;;
59263;SDS011;45030;42.720;23.344;2023-03-19T01:51:02;33.75;;;18.48;;
59263;SDS011;45030;42.720;23.344;2023-03-19T01:53:30;37.97;;;19.92;;
59263;SDS011;45030;42.720;23.344;2023-03-19T01:56:08;28.13;;;16.20;;
59263;SDS011;45030;42.720;23.344;2023-03-19T01:58:35;29.00;;;14.48;;
59263;SDS011;45030;42.720;23.344;2023-03-19T02:01:00;23.27;;;12.80;;
59263;SDS011;45030;42.720;23.344;2023-03-19T02:03:26;32.22;;;16.50;;
59263;SDS011;45030;42.720;23.344;2023-03-19T02:05:51;30.27;;;16.67;;
59263;SDS011;45030;42.720;23.344;2023-03-19T02:08:17;36.63;;;20.10;;
59263;SDS011;45030;42.720;23.344;2023-03-19T02:10:43;33.17;;;19.30;;
59263;SDS011;45030;42.720;23.344;2023-03-19T02:13:10;34.45;;;17.80;;
59263;SDS011;45030;42.720;23.344;2023-03-19T02:15:36;33.15;;;17.00;;
59263;SDS011;45030;42.720;23.344;2023-03-19T02:18:02;24.08;;;17.00;;
59263;SDS011;45030;42.720;23.344;2023-03-19T02:20:34;27.58;;;17.88;;
59263;SDS011;45030;42.720;23.344;2023-03-19T02:25:39;32.40;;;17.33;;
59263;SDS011;45030;42.720;23.344;2023-03-19T02:28:06;35.50;;;17.08;;
59263;SDS011;45030;42.720;23.344;2023-03-19T02:30:33;36.83;;;17.73;;
59263;SDS011;45030;42.720;23.344;2023-03-19T02:32:59;34.15;;;17.85;;
59263;SDS011;45030;42.720;23.344;2023-03-19T02:35:24;38.40;;;18.40;;
59263;SDS011;45030;42.720;23.344;2023-03-19T02:37:50;35.65;;;19.00;;
59263;SDS011;45030;42.720;23.344;2023-03-19T02:40:18;43.20;;;21.55;;
59263;SDS011;45030;42.720;23.344;2023-03-19T02:42:45;47.05;;;24.10;;
59263;SDS011;45030;42.720;23.344;2023-03-19T02:45:10;32.47;;;18.95;;
59263;SDS011;45030;42.720;23.344;2023-03-19T02:47:35;36.53;;;17.65;;
59263;SDS011;45030;42.720;23.344;2023-03-19T02:50:01;35.65;;;21.45;;
59263;SDS011;45030;42.720;23.344;2023-03-19T02:52:26;42.45;;;28.08;;
59263;SDS011;45030;42.720;23.344;2023-03-19T02:54:51;45.33;;;26.85;;
59263;SDS011;45030;42.720;23.344;2023-03-19T02:57:16;41.88;;;24.23;;
59263;SDS011;45030;42.720;23.344;2023-03-19T02:59:42;32.88;;;20.00;;
59263;SDS011;45030;42.720;23.344;2023-03-19T03:02:07;34.10;;;19.17;;
59263;SDS011;45030;42.720;23.344;2023-03-19T03:04:34;39.13;;;20.17;;
59263;SDS011;45030;42.720;23.344;2023-03-19T03:07:01;41.85;;;23.00;;
59263;SDS011;45030;42.720;23.344;2023-03-19T03:09:26;58.88;;;37.38;;
59263;SDS011;45030;42.720;23.344;2023-03-19T03:11:51;39.90;;;25.75;;
59263;SDS011;45030;42.720;23.344;2023-03-19T03:14:17;36.72;;;20.58;;
59263;SDS011;45030;42.720;23.344;2023-03-19T03:16:42;29.30;;;15.95;;
59263;SDS011;45030;42.720;23.344;2023-03-19T03:19:08;32.42;;;17.67;;
59263;SDS011;45030;42.720;23.344;2023-03-19T03:21:33;32.65;;;18.73;;
59263;SDS011;45030;42.720;23.344;2023-03-19T03:23:59;32.70;;;18.60;;
59263;SDS011;45030;42.720;23.344;2023-03-19T03:26:25;35.45;;;20.67;;
59263;SDS011;45030;42.720;23.344;2023-03-19T03:28:51;48.15;;;26.58;;
59263;SDS011;45030;42.720;23.344;2023-03-19T03:31:16;40.33;;;24.30;;
59263;SDS011;45030;42.720;23.344;2023-03-19T03:33:41;54.33;;;28.30;;
59263;SDS011;45030;42.720;23.344;2023-03-19T03:36:07;63.85;;;30.17;;
59263;SDS011;45030;42.720;23.344;2023-03-19T03:38:32;45.85;;;25.42;;
59263;SDS011;45030;42.720;23.344;2023-03-19T03:40:58;42.65;;;25.98;;
59263;SDS011;45030;42.720;23.344;2023-03-19T03:43:24;41.85;;;24.55;;
59263;SDS011;45030;42.720;23.344;2023-03-19T03:45:49;42.22;;;25.48;;
59263;SDS011;45030;42.720;23.344;2023-03-19T03:48:15;54.25;;;27.48;;
59263;SDS011;45030;42.720;23.344;2023-03-19T03:50:40;58.65;;;31.55;;
59263;SDS011;45030;42.720;23.344;2023-03-19T03:53:06;50.75;;;23.05;;
59263;SDS011;45030;42.720;23.344;2023-03-19T03:55:32;42.38;;;22.17;;
59263;SDS011;45030;42.720;23.344;2023-03-19T03:57:57;45.17;;;21.98;;
59263;SDS011;45030;42.720;23.344;2023-03-19T04:00:23;40.60;;;23.42;;
59263;SDS011;45030;42.720;23.344;2023-03-19T04:02:48;34.25;;;22.45;;
59263;SDS011;45030;42.720;23.344;2023-03-19T04:05:14;37.53;;;21.70;;
59263;SDS011;45030;42.720;23.344;2023-03-19T04:07:39;47.35;;;24.95;;
59263;SDS011;45030;42.720;23.344;2023-03-19T04:10:05;39.72;;;22.35;;
59263;SDS011;45030;42.720;23.344;2023-03-19T04:12:31;45.13;;;25.05;;
59263;SDS011;45030;42.720;23.344;2023-03-19T04:14:56;27.75;;;18.10;;
59263;SDS011;45030;42.720;23.344;2023-03-19T04:17:22;29.27;;;15.60;;
59263;SDS011;45030;42.720;23.344;2023-03-19T04:19:47;36.88;;;18.73;;
59263;SDS011;45030;42.720;23.344;2023-03-19T04:22:13;33.90;;;17.35;;
59263;SDS011;45030;42.720;23.344;2023-03-19T04:24:38;38.92;;;20.15;;
59263;SDS011;45030;42.720;23.344;2023-03-19T04:27:03;47.03;;;21.23;;
59263;SDS011;45030;42.720;23.344;2023-03-19T04:29:28;46.75;;;20.73;;
59263;SDS011;45030;42.720;23.344;2023-03-19T04:31:54;35.60;;;18.25;;
59263;SDS011;45030;42.720;23.344;2023-03-19T04:34:19;48.60;;;22.10;;
59263;SDS011;45030;42.720;23.344;2023-03-19T04:36:44;40.17;;;21.38;;
59263;SDS011;45030;42.720;23.344;2023-03-19T04:39:10;60.60;;;28.27;;
59263;SDS011;45030;42.720;23.344;2023-03-19T04:41:35;64.05;;;31.25;;
59263;SDS011;45030;42.720;23.344;2023-03-19T04:44:01;49.70;;;23.75;;
59263;SDS011;45030;42.720;23.344;2023-03-19T04:46:26;40.95;;;19.80;;
59263;SDS011;45030;42.720;23.344;2023-03-19T04:48:52;47.53;;;22.55;;
59263;SDS011;45030;42.720;23.344;2023-03-19T04:51:17;60.83;;;27.95;;
59263;SDS011;45030;42.720;23.344;2023-03-19T04:53:45;63.78;;;26.17;;
59263;SDS011;45030;42.720;23.344;2023-03-19T04:56:10;52.78;;;22.70;;
59263;SDS011;45030;42.720;23.344;2023-03-19T04:58:35;33.05;;;17.23;;
59263;SDS011;45030;42.720;23.344;2023-03-19T05:01:01;47.85;;;21.42;;
59263;SDS011;45030;42.720;23.344;2023-03-19T05:03:26;35.75;;;20.33;;
59263;SDS011;45030;42.720;23.344;2023-03-19T05:05:52;44.40;;;19.63;;
59263;SDS011;45030;42.720;23.344;2023-03-19T05:08:17;36.70;;;18.98;;
59263;SDS011;45030;42.720;23.344;2023-03-19T05:10:43;39.95;;;20.55;;
59263;SDS011;45030;42.720;23.344;2023-03-19T05:13:08;67.15;;;32.45;;
59263;SDS011;45030;42.720;23.344;2023-03-19T05:15:33;41.28;;;24.48;;
59263;SDS011;45030;42.720;23.344;2023-03-19T05:17:58;35.08;;;19.88;;
59263;SDS011;45030;42.720;23.344;2023-03-19T05:20:24;36.72;;;21.52;;
59263;SDS011;45030;42.720;23.344;2023-03-19T05:22:50;53.42;;;25.23;;
59263;SDS011;45030;42.720;23.344;2023-03-19T05:25:16;88.28;;;43.75;;
59263;SDS011;45030;42.720;23.344;2023-03-19T05:27:41;80.20;;;44.95;;
59263;SDS011;45030;42.720;23.344;2023-03-19T05:30:06;77.95;;;41.83;;
59263;SDS011;45030;42.720;23.344;2023-03-19T05:32:32;76.82;;;38.67;;
59263;SDS011;45030;42.720;23.344;2023-03-19T05:34:57;60.83;;;30.35;;
59263;SDS011;45030;42.720;23.344;2023-03-19T05:37:23;38.58;;;20.90;;
59263;SDS011;45030;42.720;23.344;2023-03-19T05:39:49;39.05;;;19.92;;
59263;SDS011;45030;42.720;23.344;2023-03-19T05:42:15;31.55;;;15.73;;
59263;SDS011;45030;42.720;23.344;2023-03-19T05:44:40;28.40;;;15.07;;
59263;SDS011;45030;42.720;23.344;2023-03-19T05:47:06;24.85;;;13.45;;
59263;SDS011;45030;42.720;23.344;2023-03-19T05:49:32;22.10;;;13.75;;
59263;SDS011;45030;42.720;23.344;2023-03-19T05:51:58;21.58;;;13.88;;
59263;SDS011;45030;42.720;23.344;2023-03-19T05:54:23;19.85;;;10.98;;
59263;SDS011;45030;42.720;23.344;2023-03-19T05:56:48;21.83;;;12.48;;
59263;SDS011;45030;42.720;23.344;2023-03-19T05:59:13;19.00;;;11.52;;
59263;SDS011;45030;42.720;23.344;2023-03-19T06:01:39;20.88;;;11.43;;
59263;SDS011;45030;42.720;23.344;2023-03-19T06:04:04;16.38;;;9.52;;
59263;SDS011;45030;42.720;23.344;2023-03-19T06:06:30;16.25;;;10.20;;
59263;SDS011;45030;42.720;23.344;2023-03-19T06:08:55;15.88;;;9.60;;
59263;SDS011;45030;42.720;23.344;2023-03-19T06:11:20;11.88;;;8.45;;
59263;SDS011;45030;42.720;23.344;2023-03-19T06:13:46;12.15;;;7.95;;
59263;SDS011;45030;42.720;23.344;2023-03-19T06:16:12;16.77;;;8.45;;
59263;SDS011;45030;42.720;23.344;2023-03-19T06:18:38;14.32;;;8.70;;
59263;SDS011;45030;42.720;23.344;2023-03-19T06:21:03;12.18;;;7.10;;
59263;SDS011;45030;42.720;23.344;2023-03-19T06:23:29;13.95;;;8.00;;
59263;SDS011;45030;42.720;23.344;2023-03-19T06:25:55;13.15;;;7.95;;
59263;SDS011;45030;42.720;23.344;2023-03-19T06:28:20;13.52;;;8.55;;
59263;SDS011;45030;42.720;23.344;2023-03-19T06:30:45;13.35;;;8.93;;
59263;SDS011;45030;42.720;23.344;2023-03-19T06:33:10;13.05;;;8.05;;
59263;SDS011;45030;42.720;23.344;2023-03-19T06:35:36;11.52;;;6.70;;
59263;SDS011;45030;42.720;23.344;2023-03-19T06:38:01;19.15;;;9.63;;
59263;SDS011;45030;42.720;23.344;2023-03-19T06:40:26;15.65;;;8.60;;
59263;SDS011;45030;42.720;23.344;2023-03-19T06:42:52;12.23;;;6.75;;
59263;SDS011;45030;42.720;23.344;2023-03-19T06:45:17;14.00;;;7.28;;
59263;SDS011;45030;42.720;23.344;2023-03-19T06:47:43;12.02;;;7.55;;
59263;SDS011;45030;42.720;23.344;2023-03-19T06:50:09;20.25;;;8.20;;
59263;SDS011;45030;42.720;23.344;2023-03-19T06:52:35;11.63;;;7.07;;
59263;SDS011;45030;42.720;23.344;2023-03-19T06:55:00;13.23;;;8.48;;
59263;SDS011;45030;42.720;23.344;2023-03-19T06:57:25;11.60;;;7.65;;
59263;SDS011;45030;42.720;23.344;2023-03-19T06:59:51;13.50;;;7.85;;
59263;SDS011;45030;42.720;23.344;2023-03-19T07:02:16;20.83;;;9.20;;
59263;SDS011;45030;42.720;23.344;2023-03-19T07:04:42;13.45;;;7.07;;
59263;SDS011;45030;42.720;23.344;2023-03-19T07:07:07;16.42;;;7.60;;
59263;SDS011;45030;42.720;23.344;2023-03-19T07:09:32;14.27;;;7.88;;
59263;SDS011;45030;42.720;23.344;2023-03-19T07:11:58;11.20;;;7.57;;
59263;SDS011;45030;42.720;23.344;2023-03-19T07:14:23;12.85;;;7.07;;
59263;SDS011;45030;42.720;23.344;2023-03-19T07:16:49;13.82;;;7.68;;
59263;SDS011;45030;42.720;23.344;2023-03-19T07:19:14;14.13;;;8.05;;
59263;SDS011;45030;42.720;23.344;2023-03-19T07:21:39;19.67;;;9.82;;
59263;SDS011;45030;42.720;23.344;2023-03-19T07:24:05;19.08;;;10.60;;
59263;SDS011;45030;42.720;23.344;2023-03-19T07:29:34;10.65;;;6.75;;
59263;SDS011;45030;42.720;23.344;2023-03-19T07:32:00;10.20;;;7.53;;
59263;SDS011;45030;42.720;23.344;2023-03-19T07:34:25;14.98;;;7.28;;
59263;SDS011;45030;42.720;23.344;2023-03-19T07:36:51;13.20;;;7.32;;
59263;SDS011;45030;42.720;23.344;2023-03-19T07:39:17;17.40;;;7.78;;
59263;SDS011;45030;42.720;23.344;2023-03-19T07:41:42;10.02;;;7.03;;
59263;SDS011;45030;42.720;23.344;2023-03-19T07:44:09;12.40;;;7.88;;
59263;SDS011;45030;42.720;23.344;2023-03-19T07:46:34;10.93;;;7.40;;
59263;SDS011;45030;42.720;23.344;2023-03-19T07:48:59;12.75;;;7.50;;
59263;SDS011;45030;42.720;23.344;2023-03-19T07:51:25;12.73;;;7.68;;
59263;SDS011;45030;42.720;23.344;2023-03-19T07:53:51;15.75;;;7.45;;
59263;SDS011;45030;42.720;23.344;2023-03-19T07:56:16;10.65;;;6.65;;
59263;SDS011;45030;42.720;23.344;2023-03-19T07:58:41;10.82;;;6.82;;
59263;SDS011;45030;42.720;23.344;2023-03-19T08:01:06;11.60;;;7.30;;
59263;SDS011;45030;42.720;23.344;2023-03-19T08:03:32;10.40;;;6.45;;
59263;SDS011;45030;42.720;23.344;2023-03-19T08:05:57;12.23;;;7.18;;
59263;SDS011;45030;42.720;23.344;2023-03-19T08:08:23;11.98;;;8.23;;
59263;SDS011;45030;42.720;23.344;2023-03-19T08:10:48;11.15;;;6.93;;
59263;SDS011;45030;42.720;23.344;2023-03-19T08:13:14;9.15;;;5.93;;
59263;SDS011;45030;42.720;23.344;2023-03-19T08:15:40;9.38;;;5.72;;
59263;SDS011;45030;42.720;23.344;2023-03-19T08:18:05;11.73;;;5.28;;
59263;SDS011;45030;42.720;23.344;2023-03-19T08:20:31;8.95;;;4.85;;
59263;SDS011;45030;42.720;23.344;2023-03-19T08:22:56;9.73;;;5.80;;
59263;SDS011;45030;42.720;23.344;2023-03-19T08:25:22;8.85;;;4.78;;
59263;SDS011;45030;42.720;23.344;2023-03-19T08:27:47;11.70;;;6.07;;
59263;SDS011;45030;42.720;23.344;2023-03-19T08:30:13;11.13;;;5.53;;
59263;SDS011;45030;42.720;23.344;2023-03-19T08:32:39;12.63;;;6.35;;
59263;SDS011;45030;42.720;23.344;2023-03-19T08:35:05;10.95;;;6.07;;
59263;SDS011;45030;42.720;23.344;2023-03-19T08:37:32;9.82;;;5.00;;
59263;SDS011;45030;42.720;23.344;2023-03-19T08:39:57;13.45;;;6.53;;
59263;SDS011;45030;42.720;23.344;2023-03-19T08:42:23;12.15;;;6.72;;
59263;SDS011;45030;42.720;23.344;2023-03-19T08:44:48;10.73;;;6.28;;
59263;SDS011;45030;42.720;23.344;2023-03-19T08:47:14;12.07;;;5.80;;
59263;SDS011;45030;42.720;23.344;2023-03-19T08:49:39;13.73;;;5.90;;
59263;SDS011;45030;42.720;23.344;2023-03-19T08:52:05;13.10;;;6.68;;
59263;SDS011;45030;42.720;23.344;2023-03-19T08:54:30;9.60;;;6.75;;
59263;SDS011;45030;42.720;23.344;2023-03-19T08:56:55;11.80;;;6.97;;
59263;SDS011;45030;42.720;23.344;2023-03-19T08:59:21;12.20;;;6.88;;
59263;SDS011;45030;42.720;23.344;2023-03-19T09:01:50;11.43;;;7.55;;
59263;SDS011;45030;42.720;23.344;2023-03-19T09:04:16;15.90;;;8.48;;
59263;SDS011;45030;42.720;23.344;2023-03-19T09:06:41;48.80;;;15.40;;
59263;SDS011;45030;42.720;23.344;2023-03-19T09:09:06;11.02;;;7.18;;
59263;SDS011;45030;42.720;23.344;2023-03-19T09:11:31;12.20;;;6.63;;
59263;SDS011;45030;42.720;23.344;2023-03-19T09:13:59;9.77;;;5.88;;
59263;SDS011;45030;42.720;23.344;2023-03-19T09:16:25;9.90;;;5.60;;
59263;SDS011;45030;42.720;23.344;2023-03-19T09:18:50;10.48;;;6.50;;
59263;SDS011;45030;42.720;23.344;2023-03-19T09:21:16;10.82;;;7.32;;
59263;SDS011;45030;42.720;23.344;2023-03-19T09:23:41;10.63;;;6.60;;
59263;SDS011;45030;42.720;23.344;2023-03-19T09:26:06;10.07;;;6.07;;
59263;SDS011;45030;42.720;23.344;2023-03-19T09:28:31;12.27;;;6.07;;
59263;SDS011;45030;42.720;23.344;2023-03-19T09:30:57;11.23;;;6.70;;
59263;SDS011;45030;42.720;23.344;2023-03-19T09:33:22;10.00;;;5.50;;
59263;SDS011;45030;42.720;23.344;2023-03-19T09:35:48;8.65;;;5.40;;
59263;SDS011;45030;42.720;23.344;2023-03-19T09:38:13;8.15;;;6.00;;
59263;SDS011;45030;42.720;23.344;2023-03-19T09:40:46;7.30;;;4.70;;
59263;SDS011;45030;42.720;23.344;2023-03-19T09:45:55;9.20;;;5.30;;
59263;SDS011;45030;42.720;23.344;2023-03-19T09:48:26;8.82;;;5.45;;
59263;SDS011;45030;42.720;23.344;2023-03-19T09:50:55;10.20;;;5.70;;
59263;SDS011;45030;42.720;23.344;2023-03-19T09:55:59;8.45;;;5.10;;
59263;SDS011;45030;42.720;23.344;2023-03-19T09:58:28;10.85;;;4.90;;
59263;SDS011;45030;42.720;23.344;2023-03-19T10:00:55;8.52;;;4.47;;
59263;SDS011;45030;42.720;23.344;2023-03-19T10:08:27;6.20;;;4.88;;
59263;SDS011;45030;42.720;23.344;2023-03-19T10:16:18;6.80;;;4.68;;
59263;SDS011;45030;42.720;23.344;2023-03-19T10:18:46;6.07;;;4.63;;
59263;SDS011;45030;42.720;23.344;2023-03-19T10:23:43;6.35;;;4.03;;
59263;SDS011;45030;42.720;23.344;2023-03-19T10:26:11;7.78;;;4.40;;
59263;SDS011;45030;42.720;23.344;2023-03-19T10:28:36;17.17;;;10.05;;
59263;SDS011;45030;42.720;23.344;2023-03-19T10:34:11;8.68;;;5.30;;
59263;SDS011;45030;42.720;23.344;2023-03-19T10:36:38;6.25;;;3.97;;
59263;SDS011;45030;42.720;23.344;2023-03-19T10:39:04;10.85;;;6.72;;
59263;SDS011;45030;42.720;23.344;2023-03-19T10:41:41;6.50;;;5.00;;
59263;SDS011;45030;42.720;23.344;2023-03-19T10:44:13;5.20;;;3.25;;
59263;SDS011;45030;42.720;23.344;2023-03-19T10:46:41;6.68;;;3.80;;
59263;SDS011;45030;42.720;23.344;2023-03-19T10:49:10;6.20;;;4.35;;
59263;SDS011;45030;42.720;23.344;2023-03-19T10:51:36;4.32;;;3.50;;
59263;SDS011;45030;42.720;23.344;2023-03-19T10:54:12;8.35;;;4.43;;
59263;SDS011;45030;42.720;23.344;2023-03-19T10:56:40;7.38;;;3.60;;
59263;SDS011;45030;42.720;23.344;2023-03-19T10:59:20;12.90;;;9.38;;
59263;SDS011;45030;42.720;23.344;2023-03-19T11:01:46;7.88;;;4.13;;
59263;SDS011;45030;42.720;23.344;2023-03-19T11:04:21;6.57;;;4.05;;
59263;SDS011;45030;42.720;23.344;2023-03-19T11:06:47;5.82;;;4.55;;
59263;SDS011;45030;42.720;23.344;2023-03-19T11:09:16;6.07;;;3.88;;
59263;SDS011;45030;42.720;23.344;2023-03-19T11:11:47;7.13;;;3.53;;
59263;SDS011;45030;42.720;23.344;2023-03-19T11:14:16;6.50;;;3.58;;
59263;SDS011;45030;42.720;23.344;2023-03-19T11:19:27;6.45;;;4.20;;
59263;SDS011;45030;42.720;23.344;2023-03-19T11:22:01;7.03;;;4.53;;
59263;SDS011;45030;42.720;23.344;2023-03-19T11:26:54;4.93;;;2.80;;
59263;SDS011;45030;42.720;23.344;2023-03-19T11:29:20;5.30;;;3.22;;
59263;SDS011;45030;42.720;23.344;2023-03-19T11:31:52;5.80;;;3.67;;
59263;SDS011;45030;42.720;23.344;2023-03-19T11:54:40;8.77;;;3.72;;
59263;SDS011;45030;42.720;23.344;2023-03-19T11:57:08;5.18;;;3.40;;
59263;SDS011;45030;42.720;23.344;2023-03-19T12:07:18;5.22;;;3.13;;
59263;SDS011;45030;42.720;23.344;2023-03-19T12:17:36;6.85;;;3.00;;
59263;SDS011;45030;42.720;23.344;2023-03-19T12:20:10;5.20;;;2.95;;
59263;SDS011;45030;42.720;23.344;2023-03-19T12:28:19;6.25;;;3.78;;
59263;SDS011;45030;42.720;23.344;2023-03-19T12:30:48;5.25;;;3.30;;
59263;SDS011;45030;42.720;23.344;2023-03-19T12:35:48;5.40;;;3.20;;
59263;SDS011;45030;42.720;23.344;2023-03-19T12:41:04;6.80;;;3.15;;
59263;SDS011;45030;42.720;23.344;2023-03-19T12:46:32;4.47;;;2.97;;
59263;SDS011;45030;42.720;23.344;2023-03-19T12:49:05;4.67;;;2.97;;
59263;SDS011;45030;42.720;23.344;2023-03-19T12:51:33;4.13;;;2.60;;
59263;SDS011;45030;42.720;23.344;2023-03-19T12:59:17;5.82;;;2.72;;
59263;SDS011;45030;42.720;23.344;2023-03-19T13:01:48;4.60;;;2.70;;
59263;SDS011;45030;42.720;23.344;2023-03-19T13:04:15;6.03;;;2.97;;
59263;SDS011;45030;42.720;23.344;2023-03-19T13:06:45;4.30;;;2.30;;
59263;SDS011;45030;42.720;23.344;2023-03-19T13:11:57;3.60;;;2.45;;
59263;SDS011;45030;42.720;23.344;2023-03-19T13:21:46;3.00;;;2.10;;
59263;SDS011;45030;42.720;23.344;2023-03-19T13:24:21;5.82;;;2.22;;
59263;SDS011;45030;42.720;23.344;2023-03-19T13:26:48;4.25;;;2.38;;
59263;SDS011;45030;42.720;23.344;2023-03-19T13:29:19;8.85;;;3.72;;
59263;SDS011;45030;42.720;23.344;2023-03-19T13:31:45;8.20;;;3.30;;
59263;SDS011;45030;42.720;23.344;2023-03-19T13:36:42;3.28;;;2.00;;
59263;SDS011;45030;42.720;23.344;2023-03-19T13:39:13;4.45;;;2.03;;
59263;SDS011;45030;42.720;23.344;2023-03-19T13:46:50;3.35;;;1.73;;
59263;SDS011;45030;42.720;23.344;2023-03-19T13:52:01;4.22;;;2.40;;
59263;SDS011;45030;42.720;23.344;2023-03-19T13:54:38;7.65;;;2.53;;
59263;SDS011;45030;42.720;23.344;2023-03-19T13:59:31;3.05;;;2.10;;
59263;SDS011;45030;42.720;23.344;2023-03-19T14:04:55;3.60;;;2.10;;
59263;SDS011;45030;42.720;23.344;2023-03-19T14:07:23;14.75;;;7.72;;
59263;SDS011;45030;42.720;23.344;2023-03-19T14:10:02;4.28;;;2.40;;
59263;SDS011;45030;42.720;23.344;2023-03-19T14:25:25;3.60;;;1.95;;
59263;SDS011;45030;42.720;23.344;2023-03-19T14:27:54;5.57;;;2.35;;
59263;SDS011;45030;42.720;23.344;2023-03-19T14:32:48;3.90;;;2.25;;
59263;SDS011;45030;42.720;23.344;2023-03-19T14:35:16;5.22;;;2.30;;
59263;SDS011;45030;42.720;23.344;2023-03-19T14:37:45;4.22;;;2.30;;
59263;SDS011;45030;42.720;23.344;2023-03-19T14:40:20;6.95;;;3.00;;
59263;SDS011;45030;42.720;23.344;2023-03-19T14:53:33;4.70;;;2.70;;
59263;SDS011;45030;42.720;23.344;2023-03-19T14:56:02;5.55;;;2.70;;
59263;SDS011;45030;42.720;23.344;2023-03-19T14:58:33;5.85;;;2.80;;
59263;SDS011;45030;42.720;23.344;2023-03-19T15:00:58;3.87;;;2.30;;
59263;SDS011;45030;42.720;23.344;2023-03-19T15:03:30;5.40;;;3.05;;
59263;SDS011;45030;42.720;23.344;2023-03-19T15:05:57;8.70;;;4.47;;
59263;SDS011;45030;42.720;23.344;2023-03-19T15:08:23;4.72;;;3.35;;
59263;SDS011;45030;42.720;23.344;2023-03-19T15:11:00;6.40;;;3.42;;
59263;SDS011;45030;42.720;23.344;2023-03-19T15:18:36;4.45;;;3.03;;
59263;SDS011;45030;42.720;23.344;2023-03-19T15:21:02;6.45;;;2.60;;
59263;SDS011;45030;42.720;23.344;2023-03-19T15:23:27;6.05;;;2.70;;
59263;SDS011;45030;42.720;23.344;2023-03-19T15:25:56;6.22;;;2.63;;
59263;SDS011;45030;42.720;23.344;2023-03-19T15:28:25;6.38;;;2.58;;
59263;SDS011;45030;42.720;23.344;2023-03-19T15:31:00;5.88;;;3.10;;
59263;SDS011;45030;42.720;23.344;2023-03-19T15:33:33;6.65;;;2.72;;
59263;SDS011;45030;42.720;23.344;2023-03-19T15:36:02;7.95;;;3.88;;
59263;SDS011;45030;42.720;23.344;2023-03-19T15:38:30;5.35;;;2.75;;
59263;SDS011;45030;42.720;23.344;2023-03-19T15:40:57;12.95;;;5.93;;
59263;SDS011;45030;42.720;23.344;2023-03-19T15:43:22;4.55;;;2.40;;
59263;SDS011;45030;42.720;23.344;2023-03-19T15:45:48;6.38;;;3.70;;
59263;SDS011;45030;42.720;23.344;2023-03-19T15:50:43;7.00;;;3.72;;
59263;SDS011;45030;42.720;23.344;2023-03-19T15:53:11;6.95;;;3.70;;
59263;SDS011;45030;42.720;23.344;2023-03-19T15:55:38;30.23;;;13.13;;
59263;SDS011;45030;42.720;23.344;2023-03-19T15:58:08;10.68;;;3.38;;
59263;SDS011;45030;42.720;23.344;2023-03-19T16:00:37;11.93;;;5.43;;
59263;SDS011;45030;42.720;23.344;2023-03-19T16:03:04;19.85;;;10.25;;
59263;SDS011;45030;42.720;23.344;2023-03-19T16:05:30;7.78;;;4.80;;
59263;SDS011;45030;42.720;23.344;2023-03-19T16:08:07;8.18;;;3.10;;
59263;SDS011;45030;42.720;23.344;2023-03-19T16:13:01;4.32;;;2.65;;
59263;SDS011;45030;42.720;23.344;2023-03-19T16:15:34;8.70;;;3.42;;
59263;SDS011;45030;42.720;23.344;2023-03-19T16:18:08;11.20;;;6.50;;
59263;SDS011;45030;42.720;23.344;2023-03-19T16:20:39;63.80;;;23.98;;
59263;SDS011;45030;42.720;23.344;2023-03-19T16:23:05;44.53;;;17.98;;
59263;SDS011;45030;42.720;23.344;2023-03-19T16:25:30;119.70;;;37.38;;
59263;SDS011;45030;42.720;23.344;2023-03-19T16:27:55;83.43;;;28.42;;
59263;SDS011;45030;42.720;23.344;2023-03-19T16:30:22;17.83;;;8.23;;
59263;SDS011;45030;42.720;23.344;2023-03-19T16:33:01;16.55;;;8.88;;
59263;SDS011;45030;42.720;23.344;2023-03-19T16:35:27;16.88;;;9.70;;
59263;SDS011;45030;42.720;23.344;2023-03-19T16:37:54;16.55;;;8.40;;
59263;SDS011;45030;42.720;23.344;2023-03-19T16:40:43;16.20;;;6.78;;
59263;SDS011;45030;42.720;23.344;2023-03-19T16:43:23;18.17;;;8.88;;
59263;SDS011;45030;42.720;23.344;2023-03-19T16:46:05;28.77;;;11.60;;
59263;SDS011;45030;42.720;23.344;2023-03-19T16:48:32;96.60;;;33.53;;